createdAt,value
2022-12-29T00:01:02.272Z,50.46
2022-12-29T00:02:04.621Z,50.54
2022-12-29T00:03:06.865Z,50.56
2022-12-29T00:04:15.284Z,50.52
2022-12-29T00:05:17.819Z,50.45
2022-12-29T00:06:20.105Z,50.56
2022-12-29T00:07:22.384Z,50.52
2022-12-29T00:08:40.599Z,50.56
2022-12-29T00:09:43.230Z,50.67
2022-12-29T00:10:45.464Z,50.50
2022-12-29T00:11:47.715Z,50.48
2022-12-29T00:13:19.432Z,50.45
2022-12-29T00:14:40.246Z,50.46
2022-12-29T00:15:42.426Z,50.46
2022-12-29T00:16:46.234Z,50.35
2022-12-29T00:17:48.396Z,50.30
2022-12-29T00:18:51.021Z,50.37
2022-12-29T00:20:12.127Z,50.51
2022-12-29T00:21:34.180Z,50.48
2022-12-29T00:22:54.787Z,50.44
2022-12-29T00:24:30.682Z,50.56
2022-12-29T00:25:51.440Z,50.62
2022-12-29T00:27:16.522Z,50.40
2022-12-29T00:28:38.995Z,50.47
2022-12-29T00:29:59.604Z,50.23
2022-12-29T00:31:20.892Z,50.58
2022-12-29T00:32:41.745Z,50.22
2022-12-29T00:34:02.635Z,50.27
2022-12-29T00:35:10.971Z,50.26
2022-12-29T00:36:16.672Z,50.27
2022-12-29T00:37:39.324Z,50.06
2022-12-29T00:39:04.841Z,50.10
2022-12-29T00:40:26.095Z,50.19
2022-12-29T00:41:47.169Z,50.29
2022-12-29T00:43:18.395Z,50.30
2022-12-29T00:44:20.677Z,50.33
2022-12-29T00:45:23.149Z,50.37
2022-12-29T00:46:25.354Z,50.30
2022-12-29T00:47:27.865Z,50.42
2022-12-29T00:48:48.927Z,50.65
2022-12-29T00:49:51.179Z,50.83
2022-12-29T00:50:57.280Z,50.77
2022-12-29T00:52:04.612Z,50.75
2022-12-29T00:53:06.757Z,50.79
2022-12-29T00:54:09.452Z,50.74
2022-12-29T00:55:11.734Z,50.84
2022-12-29T00:56:13.995Z,50.84
2022-12-29T00:57:16.332Z,50.79
2022-12-29T00:58:23.092Z,50.78
2022-12-29T00:59:26.113Z,51.01
2022-12-29T01:00:28.313Z,51.02
2022-12-29T01:01:32.391Z,51.15
2022-12-29T01:02:34.887Z,51.28
2022-12-29T01:03:40.943Z,51.18
2022-12-29T01:04:43.090Z,51.35
2022-12-29T01:05:45.369Z,51.33
2022-12-29T01:06:49.280Z,51.32
2022-12-29T01:07:51.663Z,51.37
2022-12-29T01:09:15.844Z,51.38
2022-12-29T01:10:18.451Z,51.44
2022-12-29T01:11:21.643Z,51.40
2022-12-29T01:12:41.748Z,51.56
2022-12-29T01:13:45.807Z,51.40
2022-12-29T01:14:50.800Z,51.57
2022-12-29T01:15:54.205Z,51.87
2022-12-29T01:16:58.218Z,51.84
2022-12-29T01:18:00.455Z,51.77
2022-12-29T01:19:03.172Z,51.78
2022-12-29T01:20:05.960Z,51.98
2022-12-29T01:21:08.207Z,52.06
2022-12-29T01:22:10.353Z,51.88
2022-12-29T01:23:12.825Z,52.09
2022-12-29T01:24:17.715Z,52.11
2022-12-29T01:25:20.389Z,52.09
2022-12-29T01:26:22.850Z,52.46
2022-12-29T01:27:27.792Z,52.25
2022-12-29T01:28:29.941Z,52.15
2022-12-29T01:29:32.144Z,52.32
2022-12-29T01:30:34.387Z,52.47
2022-12-29T01:31:36.749Z,52.42
2022-12-29T01:32:39.196Z,52.53
2022-12-29T01:33:41.642Z,52.65
2022-12-29T01:34:43.852Z,52.63
2022-12-29T01:35:48.574Z,52.63
2022-12-29T01:36:50.800Z,52.57
2022-12-29T01:37:53.065Z,52.77
2022-12-29T01:38:55.990Z,52.84
2022-12-29T01:39:58.308Z,52.78
2022-12-29T01:41:00.819Z,52.89
2022-12-29T01:42:02.998Z,52.88
2022-12-29T01:43:08.866Z,52.93
2022-12-29T01:45:02.560Z,53.08
2022-12-29T01:46:04.831Z,53.14
2022-12-29T01:47:09.612Z,53.13
2022-12-29T01:48:14.527Z,53.35
2022-12-29T01:49:23.048Z,53.56
2022-12-29T01:50:33.360Z,53.42
2022-12-29T01:52:01.548Z,53.53
2022-12-29T01:53:10.360Z,53.64
2022-12-29T01:54:19.527Z,53.39
2022-12-29T01:55:22.454Z,53.50
2022-12-29T01:56:25.307Z,53.73
2022-12-29T01:57:32.518Z,53.95
2022-12-29T01:58:41.409Z,53.83
2022-12-29T02:00:10.836Z,54.04
2022-12-29T02:01:22.921Z,53.92
2022-12-29T02:02:26.441Z,54.16
2022-12-29T02:03:31.629Z,54.22
2022-12-29T02:04:41.508Z,54.20
2022-12-29T02:06:03.441Z,54.10
2022-12-29T02:07:12.647Z,54.42
2022-12-29T02:08:14.975Z,54.21
2022-12-29T02:09:17.309Z,54.35
2022-12-29T02:10:24.202Z,54.39
2022-12-29T02:11:29.993Z,54.53
2022-12-29T02:12:32.516Z,54.66
2022-12-29T02:13:34.858Z,54.40
2022-12-29T02:14:37.337Z,54.49
2022-12-29T02:16:03.985Z,54.31
2022-12-29T02:17:30.360Z,54.40
2022-12-29T02:18:52.502Z,54.53
2022-12-29T02:20:30.754Z,54.38
2022-12-29T02:21:41.646Z,54.51
2022-12-29T02:23:08.696Z,54.37
2022-12-29T02:24:44.350Z,54.45
2022-12-29T02:26:14.919Z,54.46
2022-12-29T02:27:59.920Z,54.37
2022-12-29T02:29:16.538Z,54.71
2022-12-29T02:30:19.441Z,54.59
2022-12-29T02:31:22.760Z,54.73
2022-12-29T02:32:49.926Z,54.63
2022-12-29T02:34:31.236Z,54.53
2022-12-29T02:35:47.177Z,54.58
2022-12-29T02:37:08.626Z,54.48
2022-12-29T02:38:50.592Z,54.64
2022-12-29T02:40:10.047Z,54.44
2022-12-29T02:41:31.148Z,54.43
2022-12-29T02:42:42.529Z,54.65
2022-12-29T02:44:05.700Z,54.62
2022-12-29T02:45:17.538Z,54.51
2022-12-29T02:46:33.795Z,54.52
2022-12-29T02:47:43.112Z,54.54
2022-12-29T02:49:28.874Z,54.52
2022-12-29T02:50:38.531Z,54.46
2022-12-29T02:51:58.289Z,54.65
2022-12-29T02:53:04.337Z,54.66
2022-12-29T02:54:25.139Z,54.67
2022-12-29T02:55:27.849Z,54.70
2022-12-29T02:56:30.103Z,54.73
2022-12-29T02:57:35.777Z,54.75
2022-12-29T02:58:38.779Z,54.82
2022-12-29T02:59:44.276Z,54.67
2022-12-29T03:01:14.109Z,54.47
2022-12-29T03:02:55.646Z,54.46
2022-12-29T03:04:36.277Z,54.39
2022-12-29T03:06:09.014Z,54.39
2022-12-29T03:07:23.365Z,54.47
2022-12-29T03:08:56.151Z,54.42
2022-12-29T03:10:00.895Z,54.63
2022-12-29T03:11:06.818Z,54.48
2022-12-29T03:12:19.750Z,54.35
2022-12-29T03:13:54.038Z,54.52
2022-12-29T03:15:23.431Z,54.64
2022-12-29T03:16:47.263Z,54.34
2022-12-29T03:18:18.970Z,54.41
2022-12-29T03:19:47.530Z,54.31
2022-12-29T03:20:55.988Z,54.22
2022-12-29T03:22:25.721Z,54.17
2022-12-29T03:23:39.757Z,54.27
2022-12-29T03:25:05.006Z,54.07
2022-12-29T03:26:12.651Z,54.03
2022-12-29T03:27:21.047Z,54.01
2022-12-29T03:28:28.714Z,54.01
2022-12-29T03:29:36.296Z,54.02
2022-12-29T03:30:41.080Z,53.85
2022-12-29T03:31:43.844Z,54.14
2022-12-29T03:33:16.604Z,54.11
2022-12-29T03:34:22.773Z,54.10
2022-12-29T03:35:28.903Z,53.88
2022-12-29T03:36:45.493Z,54.04
2022-12-29T03:38:00.482Z,53.86
2022-12-29T03:39:14.472Z,53.95
2022-12-29T03:40:17.689Z,53.87
2022-12-29T03:41:27.155Z,53.92
2022-12-29T03:42:36.383Z,53.82
2022-12-29T03:43:38.886Z,53.83
2022-12-29T03:44:44.124Z,53.87
2022-12-29T03:45:48.532Z,53.78
2022-12-29T03:46:51.281Z,53.61
2022-12-29T03:47:54.699Z,53.62
2022-12-29T03:48:57.735Z,53.54
2022-12-29T03:49:59.945Z,53.66
2022-12-29T03:51:02.268Z,53.62
2022-12-29T03:52:05.069Z,53.47
2022-12-29T03:53:11.121Z,53.59
2022-12-29T03:54:14.641Z,53.66
2022-12-29T03:55:16.944Z,53.44
2022-12-29T03:56:21.123Z,53.63
2022-12-29T03:57:25.250Z,53.43
2022-12-29T03:58:34.515Z,53.43
2022-12-29T03:59:44.597Z,53.39
2022-12-29T04:00:47.355Z,53.39
2022-12-29T04:01:49.689Z,53.31
2022-12-29T04:02:53.017Z,53.20
2022-12-29T04:04:15.625Z,53.18
2022-12-29T04:05:20.393Z,53.04
2022-12-29T04:06:24.764Z,53.11
2022-12-29T04:07:33.529Z,53.22
2022-12-29T04:08:38.226Z,53.16
2022-12-29T04:09:41.758Z,53.27
2022-12-29T04:10:46.535Z,53.22
2022-12-29T04:11:54.008Z,53.05
2022-12-29T04:12:57.252Z,53.10
2022-12-29T04:14:00.583Z,53.30
2022-12-29T04:15:04.098Z,53.16
2022-12-29T04:16:07.128Z,53.01
2022-12-29T04:17:10.214Z,53.06
2022-12-29T04:18:14.554Z,53.10
2022-12-29T04:19:16.878Z,53.07
2022-12-29T04:20:39.830Z,53.17
2022-12-29T04:21:43.234Z,53.01
2022-12-29T04:22:45.407Z,52.91
2022-12-29T04:23:48.675Z,52.94
2022-12-29T04:24:52.900Z,53.10
2022-12-29T04:25:55.505Z,53.07
2022-12-29T04:26:57.756Z,52.99
2022-12-29T04:28:26.281Z,52.93
2022-12-29T04:29:48.866Z,52.90
2022-12-29T04:31:11.523Z,52.88
2022-12-29T04:32:16.660Z,52.81
2022-12-29T04:33:25.359Z,52.88
2022-12-29T04:34:29.101Z,52.82
2022-12-29T04:35:31.347Z,53.00
2022-12-29T04:36:34.456Z,52.97
2022-12-29T04:37:36.936Z,52.96
2022-12-29T04:38:39.288Z,52.97
2022-12-29T04:39:41.591Z,52.98
2022-12-29T04:40:45.242Z,53.12
2022-12-29T04:41:48.154Z,53.00
2022-12-29T04:42:54.345Z,53.03
2022-12-29T04:43:57.625Z,52.92
2022-12-29T04:44:59.783Z,53.01
2022-12-29T04:46:27.936Z,52.95
2022-12-29T04:47:40.363Z,53.02
2022-12-29T04:49:05.659Z,53.09
2022-12-29T04:50:33.225Z,53.00
2022-12-29T04:51:58.241Z,53.10
2022-12-29T04:53:00.466Z,53.24
2022-12-29T04:54:02.680Z,53.32
2022-12-29T04:55:06.815Z,53.44
2022-12-29T04:56:10.250Z,53.47
2022-12-29T04:57:12.626Z,53.80
2022-12-29T04:58:22.252Z,53.77
2022-12-29T04:59:24.999Z,53.85
2022-12-29T05:00:31.072Z,53.92
2022-12-29T05:01:33.321Z,53.82
2022-12-29T05:02:37.676Z,53.86
2022-12-29T05:03:40.106Z,53.77
2022-12-29T05:04:42.482Z,53.62
2022-12-29T05:05:44.660Z,53.83
2022-12-29T05:06:47.477Z,53.71
2022-12-29T05:07:49.845Z,53.74
2022-12-29T05:08:52.425Z,53.77
2022-12-29T05:09:55.890Z,53.63
2022-12-29T05:10:58.457Z,53.55
2022-12-29T05:12:01.105Z,53.70
2022-12-29T05:13:03.373Z,53.34
2022-12-29T05:14:08.315Z,53.34
2022-12-29T05:15:12.136Z,53.42
2022-12-29T05:16:15.024Z,53.27
2022-12-29T05:17:19.557Z,53.38
2022-12-29T05:18:21.771Z,53.23
2022-12-29T05:19:24.992Z,53.09
2022-12-29T05:20:30.351Z,53.18
2022-12-29T05:21:33.268Z,53.22
2022-12-29T05:22:35.776Z,53.12
2022-12-29T05:23:38.943Z,53.06
2022-12-29T05:24:44.746Z,53.29
2022-12-29T05:25:47.017Z,53.25
2022-12-29T05:26:56.173Z,53.16
2022-12-29T05:28:09.533Z,53.19
2022-12-29T05:29:27.322Z,53.03
2022-12-29T05:30:29.585Z,53.12
2022-12-29T05:31:36.751Z,53.33
2022-12-29T05:32:40.560Z,53.15
2022-12-29T05:33:43.615Z,53.11
2022-12-29T05:34:45.904Z,53.31
2022-12-29T05:35:50.418Z,53.16
2022-12-29T05:36:53.606Z,53.24
2022-12-29T05:37:55.799Z,53.18
2022-12-29T05:38:58.174Z,53.11
2022-12-29T05:40:00.574Z,53.08
2022-12-29T05:41:04.188Z,53.18
2022-12-29T05:42:35.619Z,52.97
2022-12-29T05:44:16.176Z,52.96
2022-12-29T05:45:43.695Z,52.98
2022-12-29T05:47:03.193Z,52.84
2022-12-29T05:48:23.230Z,52.99
2022-12-29T05:50:04.283Z,52.94
2022-12-29T05:51:29.561Z,52.78
2022-12-29T05:52:34.601Z,52.73
2022-12-29T05:53:36.801Z,52.88
2022-12-29T05:54:39.018Z,52.95
2022-12-29T05:55:49.236Z,52.85
2022-12-29T05:56:52.455Z,53.04
2022-12-29T05:57:54.688Z,52.80
2022-12-29T05:58:56.904Z,53.01
2022-12-29T05:59:59.940Z,52.83
2022-12-29T06:01:02.315Z,52.84
2022-12-29T06:02:04.876Z,52.74
2022-12-29T06:03:07.673Z,52.71
2022-12-29T06:04:10.170Z,52.85
2022-12-29T06:05:12.530Z,52.68
2022-12-29T06:06:15.658Z,52.78
2022-12-29T06:07:21.261Z,52.70
2022-12-29T06:08:26.702Z,52.85
2022-12-29T06:09:36.610Z,52.88
2022-12-29T06:10:39.741Z,52.74
2022-12-29T06:11:42.484Z,52.71
2022-12-29T06:12:44.805Z,52.70
2022-12-29T06:13:47.138Z,52.80
2022-12-29T06:14:49.423Z,52.63
2022-12-29T06:15:52.083Z,52.68
2022-12-29T06:16:54.929Z,52.78
2022-12-29T06:17:58.055Z,52.76
2022-12-29T06:19:00.258Z,52.77
2022-12-29T06:20:02.833Z,52.59
2022-12-29T06:21:06.480Z,52.77
2022-12-29T06:22:09.443Z,52.54
2022-12-29T06:23:14.279Z,52.43
2022-12-29T06:24:16.447Z,52.67
2022-12-29T06:25:18.756Z,52.49
2022-12-29T06:26:21.047Z,52.49
2022-12-29T06:27:24.169Z,52.51
2022-12-29T06:28:28.383Z,52.54
2022-12-29T06:29:33.564Z,52.51
2022-12-29T06:30:35.801Z,52.41
2022-12-29T06:31:38.183Z,52.39
2022-12-29T06:32:43.689Z,52.46
2022-12-29T06:33:50.088Z,52.37
2022-12-29T06:34:52.818Z,52.36
2022-12-29T06:35:54.988Z,52.52
2022-12-29T06:36:57.195Z,52.48
2022-12-29T06:37:59.349Z,52.28
2022-12-29T06:39:01.653Z,52.23
2022-12-29T06:40:04.201Z,52.31
2022-12-29T06:41:18.015Z,52.11
2022-12-29T06:42:38.950Z,52.08
2022-12-29T06:44:08.260Z,52.11
2022-12-29T06:45:26.843Z,52.19
2022-12-29T06:46:29.088Z,52.22
2022-12-29T06:47:31.391Z,52.22
2022-12-29T06:48:33.760Z,52.11
2022-12-29T06:49:36.274Z,52.05
2022-12-29T06:50:38.469Z,52.20
2022-12-29T06:51:40.646Z,51.91
2022-12-29T06:52:42.925Z,52.13
2022-12-29T06:53:46.915Z,52.01
2022-12-29T06:54:49.088Z,52.12
2022-12-29T06:55:51.619Z,51.96
2022-12-29T06:56:53.819Z,51.79
2022-12-29T06:57:57.611Z,51.85
2022-12-29T06:59:02.112Z,51.97
2022-12-29T07:00:06.035Z,51.87
2022-12-29T07:01:08.300Z,52.20
2022-12-29T07:02:12.603Z,52.06
2022-12-29T07:03:15.137Z,51.92
2022-12-29T07:04:17.468Z,52.05
2022-12-29T07:05:19.722Z,51.83
2022-12-29T07:06:22.226Z,51.98
2022-12-29T07:07:24.483Z,52.05
2022-12-29T07:08:26.707Z,51.93
2022-12-29T07:09:38.151Z,51.98
2022-12-29T07:10:40.463Z,51.98
2022-12-29T07:11:42.714Z,51.99
2022-12-29T07:12:45.034Z,51.82
2022-12-29T07:13:50.980Z,51.93
2022-12-29T07:14:53.827Z,52.06
2022-12-29T07:15:56.016Z,52.09
2022-12-29T07:16:58.215Z,51.92
2022-12-29T07:18:00.400Z,52.01
2022-12-29T07:19:02.658Z,52.08
2022-12-29T07:20:10.962Z,52.12
2022-12-29T07:21:13.139Z,51.85
2022-12-29T07:22:15.319Z,52.09
2022-12-29T07:23:17.551Z,52.07
2022-12-29T07:24:19.765Z,51.96
2022-12-29T07:25:22.259Z,52.10
2022-12-29T07:26:24.520Z,52.08
2022-12-29T07:27:26.707Z,51.94
2022-12-29T07:28:29.149Z,52.09
2022-12-29T07:29:34.461Z,52.07
2022-12-29T07:30:38.557Z,52.21
2022-12-29T07:31:40.767Z,52.28
2022-12-29T07:32:45.268Z,52.17
2022-12-29T07:33:48.719Z,52.35
2022-12-29T07:34:51.039Z,52.29
2022-12-29T07:35:53.308Z,52.08
2022-12-29T07:36:58.624Z,52.19
2022-12-29T07:38:00.805Z,52.09
2022-12-29T07:39:04.410Z,52.19
2022-12-29T07:40:07.308Z,52.45
2022-12-29T07:41:10.120Z,52.21
2022-12-29T07:42:12.413Z,52.47
2022-12-29T07:43:18.497Z,52.22
2022-12-29T07:44:35.184Z,52.45
2022-12-29T07:45:55.239Z,52.55
2022-12-29T07:46:59.345Z,52.52
2022-12-29T07:48:03.636Z,52.48
2022-12-29T07:49:05.856Z,52.64
2022-12-29T07:50:08.210Z,52.68
2022-12-29T07:51:10.946Z,52.60
2022-12-29T07:52:13.190Z,52.70
2022-12-29T07:53:15.865Z,52.65
2022-12-29T07:54:24.400Z,52.51
2022-12-29T07:55:26.740Z,52.46
2022-12-29T07:56:29.052Z,52.72
2022-12-29T07:57:32.245Z,52.56
2022-12-29T07:58:34.817Z,52.57
2022-12-29T07:59:36.967Z,52.62
2022-12-29T08:00:39.834Z,52.58
2022-12-29T08:01:42.185Z,52.72
2022-12-29T08:04:00.582Z,52.43
2022-12-29T08:05:03.366Z,52.58
2022-12-29T08:06:05.807Z,52.38
2022-12-29T08:07:08.073Z,52.48
2022-12-29T08:08:10.239Z,52.44
2022-12-29T08:09:19.588Z,52.40
2022-12-29T08:10:24.990Z,52.49
2022-12-29T08:11:27.552Z,52.56
2022-12-29T08:12:29.755Z,52.60
2022-12-29T08:13:31.928Z,52.45
2022-12-29T08:14:34.088Z,52.16
2022-12-29T08:15:38.037Z,52.14
2022-12-29T08:16:40.286Z,52.14
2022-12-29T08:17:42.548Z,52.04
2022-12-29T08:18:45.446Z,52.11
2022-12-29T08:19:47.943Z,52.15
2022-12-29T08:20:55.615Z,52.09
2022-12-29T08:22:00.481Z,51.99
2022-12-29T08:23:02.727Z,51.89
2022-12-29T08:24:06.926Z,51.82
2022-12-29T08:25:09.442Z,51.94
2022-12-29T08:26:12.261Z,51.97
2022-12-29T08:27:20.719Z,52.10
2022-12-29T08:28:23.554Z,51.89
2022-12-29T08:29:26.175Z,51.98
2022-12-29T08:30:28.422Z,51.80
2022-12-29T08:31:30.788Z,51.94
2022-12-29T08:32:33.094Z,51.96
2022-12-29T08:33:35.289Z,51.91
2022-12-29T08:34:37.457Z,51.66
2022-12-29T08:35:39.636Z,51.57
2022-12-29T08:36:41.838Z,51.51
2022-12-29T08:37:44.067Z,51.43
2022-12-29T08:38:46.384Z,51.45
2022-12-29T08:39:48.842Z,51.49
2022-12-29T08:40:52.697Z,51.50
2022-12-29T08:41:54.918Z,51.34
2022-12-29T08:42:57.083Z,51.35
2022-12-29T08:43:59.314Z,51.36
2022-12-29T08:45:02.061Z,51.34
2022-12-29T08:46:04.473Z,51.34
2022-12-29T08:47:07.099Z,50.97
2022-12-29T08:48:09.389Z,51.22
2022-12-29T08:49:11.566Z,51.08
2022-12-29T08:50:16.840Z,51.14
2022-12-29T08:51:22.988Z,51.16
2022-12-29T08:52:26.834Z,50.79
2022-12-29T08:53:29.877Z,50.90
2022-12-29T08:54:32.958Z,50.96
2022-12-29T08:55:35.350Z,50.86
2022-12-29T08:56:37.492Z,50.81
2022-12-29T08:57:40.426Z,50.91
2022-12-29T08:58:51.876Z,50.66
2022-12-29T08:59:54.560Z,50.75
2022-12-29T09:00:58.018Z,50.65
2022-12-29T09:02:00.328Z,50.85
2022-12-29T09:03:02.848Z,50.86
2022-12-29T09:04:20.675Z,50.75
2022-12-29T09:05:23.018Z,50.78
2022-12-29T09:06:25.728Z,50.68
2022-12-29T09:07:28.301Z,50.69
2022-12-29T09:08:30.931Z,50.61
2022-12-29T09:09:36.067Z,50.36
2022-12-29T09:10:38.224Z,50.42
2022-12-29T09:11:40.459Z,50.58
2022-12-29T09:12:42.729Z,50.43
2022-12-29T09:13:45.643Z,50.67
2022-12-29T09:14:48.076Z,50.63
2022-12-29T09:15:59.532Z,50.59
2022-12-29T09:17:20.454Z,50.48
2022-12-29T09:18:22.631Z,50.43
2022-12-29T09:19:24.846Z,50.50
2022-12-29T09:20:27.094Z,50.51
2022-12-29T09:21:32.978Z,50.58
2022-12-29T09:22:35.341Z,50.50
2022-12-29T09:23:38.116Z,50.45
2022-12-29T09:24:40.311Z,50.42
2022-12-29T09:25:47.108Z,50.37
2022-12-29T09:26:49.336Z,50.23
2022-12-29T09:27:54.259Z,50.33
2022-12-29T09:28:56.432Z,50.27
2022-12-29T09:29:58.677Z,50.13
2022-12-29T09:31:01.575Z,50.41
2022-12-29T09:32:07.548Z,50.16
2022-12-29T09:33:10.082Z,50.27
2022-12-29T09:34:12.547Z,50.46
2022-12-29T09:35:16.326Z,50.28
2022-12-29T09:36:21.173Z,50.36
2022-12-29T09:37:23.391Z,50.38
2022-12-29T09:38:28.020Z,50.37
2022-12-29T09:39:30.173Z,50.45
2022-12-29T09:40:34.289Z,50.32
2022-12-29T09:41:58.483Z,50.23
2022-12-29T09:43:18.649Z,50.24
2022-12-29T09:44:23.689Z,50.42
2022-12-29T09:45:45.982Z,50.44
2022-12-29T09:46:54.662Z,50.44
2022-12-29T09:48:01.355Z,50.31
2022-12-29T09:49:29.957Z,50.45
2022-12-29T09:50:36.647Z,50.28
2022-12-29T09:51:41.296Z,50.21
2022-12-29T09:52:56.089Z,50.20
2022-12-29T09:54:01.416Z,49.98
2022-12-29T09:55:13.588Z,50.01
2022-12-29T09:56:23.174Z,49.95
2022-12-29T09:57:50.883Z,49.96
2022-12-29T09:58:55.667Z,49.86
2022-12-29T10:00:04.203Z,50.02
2022-12-29T10:01:36.705Z,50.19
2022-12-29T10:02:44.165Z,49.68
2022-12-29T10:03:54.173Z,49.73
2022-12-29T10:04:56.526Z,49.79
2022-12-29T10:06:09.805Z,49.66
2022-12-29T10:07:36.776Z,49.24
2022-12-29T10:08:45.752Z,49.14
2022-12-29T10:10:28.771Z,49.01
2022-12-29T10:11:48.008Z,48.60
2022-12-29T10:13:06.404Z,48.48
2022-12-29T10:14:51.801Z,48.35
2022-12-29T10:16:09.347Z,47.99
2022-12-29T10:17:48.939Z,47.91
2022-12-29T10:19:15.599Z,48.01
2022-12-29T10:20:37.366Z,47.72
2022-12-29T10:22:03.868Z,47.74
2022-12-29T10:23:40.239Z,47.71
2022-12-29T10:24:46.879Z,47.32
2022-12-29T10:25:49.705Z,47.02
2022-12-29T10:26:53.120Z,47.15
2022-12-29T10:27:59.787Z,46.87
2022-12-29T10:29:07.864Z,47.04
2022-12-29T10:30:13.644Z,46.57
2022-12-29T10:31:25.538Z,46.38
2022-12-29T10:32:34.993Z,46.52
2022-12-29T10:33:43.856Z,46.53
2022-12-29T10:34:51.186Z,46.37
2022-12-29T10:35:53.445Z,46.49
2022-12-29T10:37:02.139Z,45.83
2022-12-29T10:38:39.993Z,46.22
2022-12-29T10:39:50.446Z,45.56
2022-12-29T10:41:04.483Z,45.12
2022-12-29T10:42:46.157Z,45.69
2022-12-29T10:43:52.551Z,45.27
2022-12-29T10:44:57.141Z,44.51
2022-12-29T10:46:05.984Z,44.59
2022-12-29T10:47:38.873Z,44.59
2022-12-29T10:48:41.324Z,44.27
2022-12-29T10:49:47.558Z,44.02
2022-12-29T10:50:54.734Z,44.32
2022-12-29T10:52:03.666Z,44.14
2022-12-29T10:53:07.223Z,44.56
2022-12-29T10:54:34.693Z,44.87
2022-12-29T10:55:39.125Z,44.52
2022-12-29T10:56:46.664Z,44.73
2022-12-29T10:57:50.618Z,44.75
2022-12-29T10:58:56.665Z,44.74
2022-12-29T10:59:59.330Z,44.75
2022-12-29T11:01:01.680Z,44.95
2022-12-29T11:02:12.999Z,44.77
2022-12-29T11:03:36.951Z,44.95
2022-12-29T11:05:00.656Z,44.73
2022-12-29T11:06:11.133Z,44.63
2022-12-29T11:07:16.322Z,44.54
2022-12-29T11:08:25.683Z,44.68
2022-12-29T11:09:42.340Z,44.79
2022-12-29T11:10:47.259Z,44.66
2022-12-29T11:11:49.436Z,44.81
2022-12-29T11:12:58.290Z,44.83
2022-12-29T11:14:15.794Z,44.85
2022-12-29T11:15:18.091Z,44.98
2022-12-29T11:16:35.426Z,44.96
2022-12-29T11:17:49.647Z,44.72
2022-12-29T11:18:52.519Z,44.75
2022-12-29T11:19:54.695Z,44.82
2022-12-29T11:21:03.960Z,44.48
2022-12-29T11:22:29.707Z,44.79
2022-12-29T11:23:36.708Z,44.76
2022-12-29T11:24:45.817Z,44.60
2022-12-29T11:26:11.852Z,45.12
2022-12-29T11:27:23.992Z,44.75
2022-12-29T11:28:30.602Z,44.71
2022-12-29T11:29:42.345Z,44.93
2022-12-29T11:30:44.711Z,44.68
2022-12-29T11:31:50.920Z,44.98
2022-12-29T11:32:55.241Z,44.98
2022-12-29T11:33:57.486Z,44.91
2022-12-29T11:35:00.287Z,45.03
2022-12-29T11:36:07.496Z,44.80
2022-12-29T11:37:16.537Z,44.83
2022-12-29T11:38:26.541Z,44.84
2022-12-29T11:39:38.948Z,45.07
2022-12-29T11:40:41.607Z,45.17
2022-12-29T11:41:53.649Z,45.24
2022-12-29T11:43:05.695Z,45.10
2022-12-29T11:44:13.668Z,45.40
2022-12-29T11:45:23.976Z,45.54
2022-12-29T11:46:38.736Z,45.75
2022-12-29T11:47:46.260Z,45.67
2022-12-29T11:48:49.380Z,45.50
2022-12-29T11:49:54.986Z,45.48
2022-12-29T11:51:03.213Z,45.58
2022-12-29T11:52:05.785Z,45.69
2022-12-29T11:53:27.116Z,45.79
2022-12-29T11:54:34.930Z,45.89
2022-12-29T11:55:37.971Z,45.60
2022-12-29T11:56:44.857Z,45.90
2022-12-29T11:57:48.190Z,45.61
2022-12-29T11:58:51.816Z,45.74
2022-12-29T11:59:58.795Z,45.81
2022-12-29T12:01:26.883Z,45.89
2022-12-29T12:02:43.133Z,45.76
2022-12-29T12:03:57.401Z,45.73
2022-12-29T12:05:28.299Z,45.82
2022-12-29T12:06:33.722Z,45.71
2022-12-29T12:07:45.110Z,45.70
2022-12-29T12:08:57.240Z,45.62
2022-12-29T12:10:07.873Z,45.69
2022-12-29T12:11:18.551Z,45.64
2022-12-29T12:12:36.988Z,45.67
2022-12-29T12:13:53.478Z,45.65
2022-12-29T12:15:00.833Z,45.61
2022-12-29T12:16:23.826Z,45.70
2022-12-29T12:17:39.483Z,45.57
2022-12-29T12:18:51.050Z,45.79
2022-12-29T12:20:17.596Z,45.98
2022-12-29T12:21:26.323Z,45.88
2022-12-29T12:22:42.715Z,46.04
2022-12-29T12:23:55.276Z,46.03
2022-12-29T12:25:09.033Z,46.12
2022-12-29T12:26:14.083Z,45.80
2022-12-29T12:27:25.645Z,45.95
2022-12-29T12:28:57.168Z,46.09
2022-12-29T12:30:08.595Z,46.24
2022-12-29T12:31:24.525Z,45.90
2022-12-29T12:33:10.739Z,46.14
2022-12-29T12:34:23.871Z,46.21
2022-12-29T12:35:38.960Z,45.98
2022-12-29T12:36:48.939Z,46.07
2022-12-29T12:37:59.077Z,45.86
2022-12-29T12:39:13.523Z,45.84
2022-12-29T12:40:53.028Z,45.89
2022-12-29T12:42:44.209Z,45.77
2022-12-29T12:44:02.784Z,45.89
2022-12-29T12:45:39.025Z,45.86
2022-12-29T12:46:58.353Z,45.40
2022-12-29T12:48:33.710Z,45.67
2022-12-29T12:49:54.516Z,45.42
2022-12-29T12:51:33.864Z,45.73
2022-12-29T12:53:04.810Z,45.66
2022-12-29T12:54:23.974Z,45.48
2022-12-29T12:55:46.687Z,45.44
2022-12-29T12:57:15.719Z,45.78
2022-12-29T12:58:30.739Z,45.58
2022-12-29T12:59:52.069Z,45.45
2022-12-29T13:01:13.100Z,45.54
2022-12-29T13:02:49.542Z,45.56
2022-12-29T13:04:30.615Z,45.77
2022-12-29T13:05:43.934Z,45.30
2022-12-29T13:06:55.587Z,45.47
2022-12-29T13:08:16.144Z,45.39
2022-12-29T13:09:20.991Z,45.40
2022-12-29T13:10:44.120Z,45.53
2022-12-29T13:12:12.621Z,45.49
2022-12-29T13:13:36.888Z,45.40
2022-12-29T13:15:06.368Z,45.46
2022-12-29T13:16:14.543Z,45.39
2022-12-29T13:17:41.940Z,45.50
2022-12-29T13:19:12.018Z,45.66
2022-12-29T13:20:44.692Z,45.70
2022-12-29T13:22:00.016Z,45.49
2022-12-29T13:23:21.415Z,45.56
2022-12-29T13:24:42.636Z,45.61
2022-12-29T13:25:52.388Z,45.59
2022-12-29T13:27:12.940Z,45.37
2022-12-29T13:28:29.829Z,45.37
2022-12-29T13:29:42.058Z,45.51
2022-12-29T13:31:09.304Z,45.55
2022-12-29T13:32:44.450Z,45.41
2022-12-29T13:34:00.581Z,45.41
2022-12-29T13:35:17.640Z,45.31
2022-12-29T13:36:57.933Z,45.53
2022-12-29T13:38:12.179Z,45.27
2022-12-29T13:39:43.101Z,45.15
2022-12-29T13:40:51.710Z,45.17
2022-12-29T13:42:00.055Z,45.31
2022-12-29T13:43:04.084Z,45.35
2022-12-29T13:44:08.289Z,45.35
2022-12-29T13:45:20.534Z,45.19
2022-12-29T13:46:38.607Z,45.38
2022-12-29T13:48:02.530Z,45.30
2022-12-29T13:49:13.879Z,45.25
2022-12-29T13:50:23.077Z,45.40
2022-12-29T13:51:28.226Z,45.42
2022-12-29T13:52:49.272Z,45.39
2022-12-29T13:54:26.763Z,45.63
2022-12-29T13:55:36.032Z,45.20
2022-12-29T13:57:11.223Z,45.50
2022-12-29T13:58:29.154Z,45.29
2022-12-29T14:00:00.381Z,45.59
2022-12-29T14:01:20.067Z,45.24
2022-12-29T14:02:38.951Z,45.44
2022-12-29T14:03:50.030Z,45.59
2022-12-29T14:05:06.665Z,45.41
2022-12-29T14:06:21.160Z,45.67
2022-12-29T14:07:23.424Z,45.59
2022-12-29T14:08:25.702Z,45.77
2022-12-29T14:09:47.479Z,45.50
2022-12-29T14:10:52.290Z,45.85
2022-12-29T14:11:59.069Z,45.69
2022-12-29T14:13:06.101Z,45.70
2022-12-29T14:14:31.310Z,45.87
2022-12-29T14:15:34.606Z,45.62
2022-12-29T14:16:36.965Z,45.78
2022-12-29T14:17:41.551Z,45.66
2022-12-29T14:18:45.747Z,45.94
2022-12-29T14:19:53.834Z,45.72
2022-12-29T14:21:04.760Z,45.81
2022-12-29T14:22:07.185Z,45.64
2022-12-29T14:23:09.280Z,45.81
2022-12-29T14:24:41.648Z,45.99
2022-12-29T14:26:10.483Z,45.94
2022-12-29T14:27:13.179Z,46.02
2022-12-29T14:28:25.686Z,45.63
2022-12-29T14:29:30.847Z,45.70
2022-12-29T14:30:50.667Z,46.12
2022-12-29T14:31:53.877Z,46.05
2022-12-29T14:33:04.770Z,45.80
2022-12-29T14:34:06.910Z,45.68
2022-12-29T14:35:41.854Z,45.95
2022-12-29T14:36:59.478Z,45.78
2022-12-29T14:38:32.171Z,45.76
2022-12-29T14:39:44.159Z,45.86
2022-12-29T14:40:48.844Z,45.94
2022-12-29T14:42:01.573Z,46.03
2022-12-29T14:43:15.075Z,46.12
2022-12-29T14:44:20.517Z,46.02
2022-12-29T14:45:34.219Z,46.03
2022-12-29T14:46:45.340Z,46.21
2022-12-29T14:47:51.481Z,46.18
2022-12-29T14:48:59.447Z,46.29
2022-12-29T14:50:35.520Z,46.36
2022-12-29T14:51:39.403Z,45.93
2022-12-29T14:53:04.117Z,45.95
2022-12-29T14:54:43.329Z,46.28
2022-12-29T14:55:56.236Z,46.18
2022-12-29T14:57:03.975Z,46.08
2022-12-29T14:58:27.642Z,46.04
2022-12-29T14:59:33.255Z,46.12
2022-12-29T15:00:37.413Z,45.83
2022-12-29T15:01:46.318Z,46.12
2022-12-29T15:03:29.686Z,46.12
2022-12-29T15:04:35.767Z,46.18